Saint Marys, Georgia
Current Conditions -  °F | °C
As of 8:35 PM on Tuesday 25 Nov 2014 (Local Time) from KFHB Reporting Station
Overcast Overcast  
Wind Chill: 66°   Ceiling: 400
Heat Index: 66°   Visibility: 4mi
Dew Point: 64°   Wind: 9mph
Humidity: 94%   Direction: 30°NNE
Pressure: 29.94"   Gusts: 17mph
Location:  30.73°N, 81.55°W
Report Text: KFHB 260135Z AUTO 03008G15KT 4SM BKN004 OVC009 19/18 A2994 RMK AO1 LTG DSNT SE AND S
Loading
Personal Weather Stations






























Interactive Weather Map New forecast layout! Learn more

10-Day Weather Forecast

Advertisements
Track Severe Weather on mobile